Time;durP1;ratioP1;P1;durP2;ratioP2;P2;SDS_P1;SDS_P2;PMS_P1;PMS_P2;Temp;Humidity;BMP_temperature;BMP_pressure;BME280_temperature;BME280_humidity;BME280_pressure;Samples;Min_cycle;Max_cycle;Signal;HPM_P1;HPM_P2
2021/12/15 00:00:38;;;;;;;0.80;0.80;;;;;;;4.81;72.75;101364.98;102277;1317;95218;-76
2021/12/15 00:03:07;;;;;;;0.90;0.90;;;;;;;4.95;72.31;101366.39;102109;1318;140187;-76
2021/12/15 00:05:35;;;;;;;0.90;0.90;;;;;;;4.97;72.35;101365.17;102237;1317;108341;-76
2021/12/15 00:08:07;;;;;;;0.90;0.90;;;;;;;4.92;72.50;101363.36;102090;1318;139680;-76
2021/12/15 00:10:35;;;;;;;0.90;0.90;;;;;;;4.86;72.71;101360.83;102193;1317;95135;-76
2021/12/15 00:13:03;;;;;;;0.90;0.90;;;;;;;4.86;73.04;101359.60;102227;1317;96114;-76
2021/12/15 00:15:31;;;;;;;0.90;0.90;;;;;;;4.95;72.71;101361.10;102139;1317;139580;-77
2021/12/15 00:17:59;;;;;;;0.90;0.90;;;;;;;4.97;72.61;101360.60;102211;1317;109705;-76
2021/12/15 00:20:29;;;;;;;0.90;0.90;;;;;;;4.94;72.94;101362.33;102093;1316;139283;-75
2021/12/15 00:22:57;;;;;;;0.80;0.80;;;;;;;4.98;72.88;101363.08;102220;1317;95488;-76
2021/12/15 00:25:28;;;;;;;0.90;0.90;;;;;;;4.99;72.67;101360.97;102173;1317;140902;-76
2021/12/15 00:27:56;;;;;;;0.80;0.80;;;;;;;4.98;72.69;101357.45;102249;1317;110322;-75
2021/12/15 00:30:25;;;;;;;0.80;0.80;;;;;;;4.97;72.96;101356.55;102216;1318;95198;-76
2021/12/15 00:32:54;;;;;;;0.90;0.90;;;;;;;4.98;73.22;101358.86;102115;1317;140363;-75
2021/12/15 00:35:23;;;;;;;0.80;0.80;;;;;;;5.01;72.82;101353.26;102302;1316;109680;-76
2021/12/15 00:37:53;;;;;;;0.90;0.90;;;;;;;4.95;73.14;101359.54;102196;1316;140728;-76
2021/12/15 00:40:24;;;;;;;0.80;0.80;;;;;;;5.00;72.96;101361.88;102287;1317;95818;-76
2021/12/15 00:42:53;;;;;;;0.90;0.90;;;;;;;4.98;72.86;101368.01;102279;1318;95184;-77
2021/12/15 00:45:20;;;;;;;0.80;0.80;;;;;;;5.01;73.30;101363.64;102140;1317;139293;-76
2021/12/15 00:47:49;;;;;;;0.90;0.90;;;;;;;5.08;72.96;101369.36;102235;1318;111089;-76
2021/12/15 00:50:19;;;;;;;0.70;0.70;;;;;;;5.13;72.86;101378.23;102104;1317;141645;-77
2021/12/15 00:52:47;;;;;;;1.10;1.10;;;;;;;5.14;72.50;101382.83;102304;1318;95258;-77
2021/12/15 00:55:19;;;;;;;0.90;0.90;;;;;;;5.16;72.53;101382.12;102158;1318;109374;-74
2021/12/15 00:57:47;;;;;;;0.90;0.90;;;;;;;5.20;72.35;101386.73;102122;1318;139311;-76
2021/12/15 01:00:36;;;;;;;0.80;0.80;;;;;;;5.16;72.43;101390.41;102316;1317;96547;-77
2021/12/15 01:03:04;;;;;;;0.90;0.90;;;;;;;5.19;72.48;101395.37;102214;1318;139156;-76
2021/12/15 01:05:36;;;;;;;0.90;0.90;;;;;;;5.22;72.52;101396.80;102210;1315;109420;-76
2021/12/15 01:08:07;;;;;;;0.80;0.80;;;;;;;5.29;72.36;101399.01;102197;1316;140609;-77
2021/12/15 01:22:00;;;;;;;0.90;0.90;;;;;;;5.37;72.17;101405.95;102224;1317;140037;-76
2021/12/15 01:24:28;;;;;;;0.80;0.80;;;;;;;5.43;71.63;101406.02;102314;1318;95268;-76
2021/12/15 01:26:56;;;;;;;0.80;0.80;;;;;;;5.35;71.78;101402.24;102151;1317;140325;-76
2021/12/15 01:29:24;;;;;;;0.90;0.90;;;;;;;5.38;71.80;101404.55;102253;1317;110505;-76
2021/12/15 01:31:51;;;;;;;0.80;0.80;;;;;;;5.37;71.50;101410.02;102157;1318;139556;-77
2021/12/15 01:34:19;;;;;;;0.90;0.90;;;;;;;5.33;71.93;101409.27;102194;1318;95675;-76
2021/12/15 01:36:47;;;;;;;0.90;0.90;;;;;;;5.33;71.85;101403.63;102247;1318;109163;-77
2021/12/15 01:39:16;;;;;;;0.80;0.80;;;;;;;5.48;71.87;101397.98;102128;1317;140191;-71
2021/12/15 01:41:44;;;;;;;0.70;0.70;;;;;;;5.56;71.04;101396.30;102235;1318;95511;-75
2021/12/15 01:49:27;;;;;;;1.00;1.00;;;;;;;5.58;70.84;101404.78;102261;1315;111653;-76
2021/12/15 01:51:58;;;;;;;0.80;0.80;;;;;;;5.52;70.78;101404.90;102128;1318;140473;-76
2021/12/15 01:54:27;;;;;;;0.80;0.80;;;;;;;5.45;71.08;101402.54;102389;1316;95793;-77
2021/12/15 01:56:55;;;;;;;0.80;0.80;;;;;;;5.44;71.28;101404.80;102149;1316;139494;-75
2021/12/15 01:59:26;;;;;;;0.80;0.80;;;;;;;5.43;71.12;101405.67;102179;1317;110318;-73
2021/12/15 02:01:54;;;;;;;0.80;0.80;;;;;;;5.35;71.30;101407.36;102288;1318;141250;-76
2021/12/15 02:04:22;;;;;;;0.80;0.80;;;;;;;5.30;71.78;101415.21;102338;1318;95323;-75
2021/12/15 02:06:50;;;;;;;0.90;0.90;;;;;;;5.33;71.43;101416.48;102100;1318;109714;-75
2021/12/15 02:09:43;;;;;;;0.80;0.80;;;;;;;5.32;71.42;101411.02;102088;1317;139765;-75
2021/12/15 02:12:10;;;;;;;0.80;0.80;;;;;;;5.33;71.67;101409.09;102269;1317;95650;-76
2021/12/15 02:14:40;;;;;;;0.80;0.80;;;;;;;5.39;71.68;101413.02;102272;1318;140658;-75
2021/12/15 02:17:09;;;;;;;1.00;1.00;;;;;;;5.44;71.48;101413.27;102271;1317;108891;-76
2021/12/15 02:19:37;;;;;;;0.90;0.90;;;;;;;5.43;71.36;101410.80;102148;1320;110191;-76
2021/12/15 02:22:05;;;;;;;0.80;0.80;;;;;;;5.41;71.38;101406.18;102031;1317;141192;-74
2021/12/15 02:24:35;;;;;;;0.80;0.80;;;;;;;5.45;71.65;101404.29;102193;1318;95798;-75
2021/12/15 02:27:04;;;;;;;0.90;0.90;;;;;;;5.46;71.29;101408.35;102189;1316;139401;-75
2021/12/15 02:29:37;;;;;;;0.90;0.90;;;;;;;5.45;71.52;101410.98;102268;1318;110824;-75
2021/12/15 02:37:58;;;;;;;0.80;0.80;;;;;;;5.56;71.03;101422.90;101508;1324;139093;-75
2021/12/15 02:40:26;;;;;;;0.90;0.90;;;;;;;5.54;71.26;101424.29;101964;1318;110459;-75
2021/12/15 02:42:53;;;;;;;0.80;0.80;;;;;;;5.61;71.10;101427.37;102112;1318;95684;-75
2021/12/15 02:45:24;;;;;;;0.80;0.80;;;;;;;5.62;70.62;101429.14;102192;1319;140242;-76
2021/12/15 02:47:53;;;;;;;0.80;0.80;;;;;;;5.55;71.10;101424.31;102304;1317;109156;-75
2021/12/15 02:50:24;;;;;;;0.80;0.80;;;;;;;5.58;71.10;101420.11;102126;1315;139904;-75
2021/12/15 02:52:52;;;;;;;0.80;0.80;;;;;;;5.60;70.89;101412.02;102389;1316;95304;-74
2021/12/15 02:55:20;;;;;;;0.80;0.80;;;;;;;5.49;70.92;101409.62;102317;1318;95276;-75
2021/12/15 02:57:49;;;;;;;0.80;0.80;;;;;;;5.38;71.44;101410.20;102136;1317;139686;-75
2021/12/15 03:00:26;;;;;;;0.80;0.80;;;;;;;5.42;71.46;101410.59;102297;1317;109247;-76
2021/12/15 03:05:44;;;;;;;0.80;0.80;;;;;;;5.49;71.16;101408.92;102287;1317;95270;-75
2021/12/15 03:08:17;;;;;;;0.90;0.90;;;;;;;5.48;71.25;101411.20;102184;1315;139766;-75
2021/12/15 03:16:25;;;;;;;0.80;0.80;;;;;;;5.50;71.17;101414.05;102089;1318;140082;-74
2021/12/15 03:18:57;;;;;;;0.90;0.90;;;;;;;5.43;71.00;101422.94;102117;1314;109454;-74
2021/12/15 03:21:27;;;;;;;0.80;0.80;;;;;;;5.45;71.54;101422.08;101992;1318;141065;-75
2021/12/15 03:23:58;;;;;;;0.70;0.70;;;;;;;5.54;71.12;101423.77;102004;1317;95144;-75
2021/12/15 03:26:36;;;;;;;0.80;0.80;;;;;;;5.48;71.02;101424.40;101995;1318;139487;-75
2021/12/15 03:34:50;;;;;;;0.80;0.80;;;;;;;5.36;71.60;101438.17;101791;1318;140523;-75
2021/12/15 03:37:23;;;;;;;0.80;0.80;;;;;;;5.41;71.65;101441.06;101809;1316;95256;-75
2021/12/15 03:39:59;;;;;;;0.80;0.80;;;;;;;5.38;71.85;101443.30;101710;1318;138831;-75
2021/12/15 03:42:33;;;;;;;0.90;0.90;;;;;;;5.28;71.87;101446.88;101853;1317;109741;-75
2021/12/15 03:45:05;;;;;;;0.80;0.80;;;;;;;5.26;71.95;101448.63;101838;1318;140522;-76
2021/12/15 03:47:35;;;;;;;0.80;0.80;;;;;;;5.25;72.39;101449.48;101858;1318;95835;-75
2021/12/15 03:50:06;;;;;;;0.80;0.80;;;;;;;5.28;72.08;101448.14;102029;1318;109539;-76
2021/12/15 03:52:34;;;;;;;0.80;0.80;;;;;;;5.22;71.98;101448.58;101970;1318;140427;-76
2021/12/15 03:55:03;;;;;;;0.80;0.80;;;;;;;5.14;72.43;101455.52;102043;1316;95784;-76
2021/12/15 03:57:31;;;;;;;0.80;0.80;;;;;;;5.11;72.52;101453.20;101886;1317;140978;-75
2021/12/15 03:59:59;;;;;;;0.90;0.90;;;;;;;5.08;72.61;101455.42;102247;1318;108330;-76
2021/12/15 04:02:27;;;;;;;0.80;0.80;;;;;;;5.09;72.77;101449.81;102029;1318;140271;-76
2021/12/15 04:04:55;;;;;;;0.80;0.80;;;;;;;5.01;72.95;101449.36;102236;1318;95291;-76
2021/12/15 04:07:23;;;;;;;0.80;0.80;;;;;;;4.99;73.06;101453.02;102145;1316;96465;-76
2021/12/15 04:09:53;;;;;;;0.80;0.80;;;;;;;5.04;73.06;101457.84;102148;1316;140022;-74
2021/12/15 04:12:20;;;;;;;0.70;0.70;;;;;;;5.13;73.06;101455.33;102240;1317;110325;-75
2021/12/15 04:14:56;;;;;;;0.80;0.80;;;;;;;5.24;72.64;101452.83;102125;1317;141214;-76
2021/12/15 04:17:29;;;;;;;0.70;0.70;;;;;;;5.33;72.44;101456.11;102166;1317;95695;-75
2021/12/15 04:20:02;;;;;;;0.80;0.80;;;;;;;5.30;72.16;101457.83;102311;1316;109474;-75
2021/12/15 04:22:30;;;;;;;0.90;0.90;;;;;;;5.23;72.45;101461.45;102070;1318;139836;-75
2021/12/15 04:24:58;;;;;;;0.80;0.80;;;;;;;5.29;72.83;101459.23;102256;1317;95155;-75
2021/12/15 04:27:27;;;;;;;0.90;0.90;;;;;;;5.40;72.14;101462.36;102053;1315;140712;-76
2021/12/15 04:29:55;;;;;;;0.80;0.80;;;;;;;5.40;71.91;101472.91;101644;1318;109372;-76
2021/12/15 04:32:30;;;;;;;0.80;0.80;;;;;;;5.42;72.05;101474.89;101513;1316;139579;-76
2021/12/15 04:34:59;;;;;;;0.90;0.90;;;;;;;5.38;72.17;101478.88;101654;1318;95624;-76
2021/12/15 04:37:27;;;;;;;0.80;0.80;;;;;;;5.41;71.97;101480.52;101685;1316;95262;-76
2021/12/15 04:39:55;;;;;;;0.80;0.80;;;;;;;5.47;72.08;101486.04;101439;1318;139574;-77
2021/12/15 04:42:24;;;;;;;0.80;0.80;;;;;;;5.47;71.53;101490.45;101682;1318;110487;-77
2021/12/15 04:44:56;;;;;;;0.70;0.70;;;;;;;5.39;71.83;101490.00;101643;1317;141039;-76
2021/12/15 04:47:25;;;;;;;0.90;0.90;;;;;;;5.35;71.88;101485.89;101441;1317;96047;-77
2021/12/15 04:49:54;;;;;;;0.80;0.80;;;;;;;5.32;72.21;101483.03;101104;1314;110680;-76
2021/12/15 04:52:27;;;;;;;0.80;0.80;;;;;;;5.38;71.98;101484.86;101099;1316;139627;-77
2021/12/15 04:54:57;;;;;;;0.80;0.80;;;;;;;5.44;71.64;101489.70;101206;1318;95323;-76
2021/12/15 04:57:26;;;;;;;0.80;0.80;;;;;;;5.38;71.68;101493.86;101176;1318;139369;-75
2021/12/15 04:59:55;;;;;;;0.80;0.80;;;;;;;5.34;71.71;101501.04;101243;1318;109557;-76
2021/12/15 05:02:23;;;;;;;0.80;0.80;;;;;;;5.39;72.08;101500.39;101293;1316;139098;-76
2021/12/15 05:04:51;;;;;;;0.80;0.80;;;;;;;5.38;71.80;101507.24;101674;1316;95306;-76
2021/12/15 05:07:20;;;;;;;0.90;0.90;;;;;;;5.37;72.04;101500.73;101974;1318;95794;-75
2021/12/15 05:09:50;;;;;;;0.80;0.80;;;;;;;5.29;71.93;101495.50;102103;1316;139499;-75
2021/12/15 05:12:19;;;;;;;0.80;0.80;;;;;;;5.30;72.21;101493.05;102282;1317;109550;-76
2021/12/15 05:14:47;;;;;;;0.80;0.80;;;;;;;5.36;71.82;101495.42;102044;1318;141007;-76
2021/12/15 05:17:15;;;;;;;0.80;0.80;;;;;;;5.43;71.92;101497.80;102258;1318;95201;-75
2021/12/15 05:19:45;;;;;;;0.80;0.80;;;;;;;5.46;71.79;101495.17;102269;1318;108853;-75
2021/12/15 05:22:14;;;;;;;0.80;0.80;;;;;;;5.46;71.68;101497.13;102206;1317;140586;-76
2021/12/15 05:24:42;;;;;;;0.80;0.80;;;;;;;5.44;71.65;101502.56;102296;1319;95208;-76
2021/12/15 05:27:13;;;;;;;0.80;0.80;;;;;;;5.46;71.63;101504.17;102161;1318;139599;-76
2021/12/15 05:29:43;;;;;;;0.90;0.90;;;;;;;5.50;71.58;101512.85;102224;1318;109434;-73
2021/12/15 05:32:13;;;;;;;0.90;0.90;;;;;;;5.49;71.63;101514.95;102245;1317;110381;-74
2021/12/15 05:34:41;;;;;;;0.80;0.80;;;;;;;5.53;71.49;101513.06;102263;1318;139457;-75
2021/12/15 05:37:09;;;;;;;0.90;0.90;;;;;;;5.53;71.45;101512.71;102217;1319;95228;-75
2021/12/15 05:39:38;;;;;;;0.90;0.90;;;;;;;5.54;71.33;101510.60;102142;1317;141370;-76
2021/12/15 05:42:06;;;;;;;0.90;0.90;;;;;;;5.55;71.66;101513.44;102407;1318;110119;-76
2021/12/15 05:44:35;;;;;;;1.00;1.00;;;;;;;5.52;71.40;101520.98;102178;1319;139818;-76
2021/12/15 05:47:03;;;;;;;0.90;0.90;;;;;;;5.51;71.56;101520.64;102260;1317;95249;-76
2021/12/15 05:49:32;;;;;;;0.90;0.90;;;;;;;5.57;71.58;101522.80;102220;1319;109500;-76
2021/12/15 05:52:00;;;;;;;0.90;0.90;;;;;;;5.60;71.34;101531.13;102140;1318;140499;-77
2021/12/15 05:54:29;;;;;;;0.80;0.80;;;;;;;5.61;71.34;101529.73;102353;1319;95191;-77
2021/12/15 05:56:57;;;;;;;0.90;0.90;;;;;;;5.65;71.24;101530.84;102299;1318;141334;-76
2021/12/15 05:59:25;;;;;;;0.90;0.90;;;;;;;5.68;71.32;101527.87;102125;1315;152078;-76
2021/12/15 06:01:58;;;;;;;0.90;0.90;;;;;;;5.72;71.01;101527.91;102386;1316;110284;-77
2021/12/15 06:04:26;;;;;;;0.80;0.80;;;;;;;5.69;70.77;101530.70;102174;1317;140447;-77
2021/12/15 06:06:54;;;;;;;0.90;0.90;;;;;;;5.63;71.18;101533.98;102310;1319;95188;-77
2021/12/15 06:09:22;;;;;;;0.80;0.80;;;;;;;5.72;71.20;101542.35;102173;1317;140021;-76
2021/12/15 06:11:53;;;;;;;0.80;0.80;;;;;;;5.78;70.94;101540.31;102245;1318;110612;-76
2021/12/15 06:14:24;;;;;;;0.80;0.80;;;;;;;5.79;70.76;101539.63;102173;1316;139170;-78
2021/12/15 06:17:00;;;;;;;0.80;0.80;;;;;;;5.79;70.56;101547.56;102252;1318;95201;-77
2021/12/15 06:19:27;;;;;;;0.80;0.80;;;;;;;5.77;70.66;101550.35;102219;1319;109648;-76
2021/12/15 06:21:55;;;;;;;0.80;0.80;;;;;;;5.77;70.56;101547.17;102214;1316;139594;-76
2021/12/15 06:24:23;;;;;;;0.90;0.90;;;;;;;5.68;70.76;101546.20;102182;1319;95288;-76
2021/12/15 06:26:51;;;;;;;0.80;0.80;;;;;;;5.74;71.03;101556.14;102166;1316;140152;-77
2021/12/15 06:29:19;;;;;;;1.00;1.00;;;;;;;5.89;70.89;101557.72;102222;1318;107851;-76
2021/12/15 06:31:47;;;;;;;0.80;0.80;;;;;;;6.00;70.57;101562.98;102302;1316;110305;-76
2021/12/15 06:34:15;;;;;;;0.80;0.80;;;;;;;5.98;70.01;101561.90;102166;1318;139157;-76
2021/12/15 06:36:43;;;;;;;0.90;0.90;;;;;;;5.90;70.52;101563.55;102143;1318;95718;-76
2021/12/15 06:39:15;;;;;;;0.90;0.90;;;;;;;5.99;70.23;101570.20;102083;1318;140769;-76
2021/12/15 06:41:43;;;;;;;0.80;0.80;;;;;;;6.03;69.94;101570.26;102220;1317;110289;-76
2021/12/15 06:44:13;;;;;;;0.80;0.80;;;;;;;6.03;69.86;101563.91;102286;1315;96200;-76
2021/12/15 07:00:03;;;;;;;0.80;0.80;;;;;;;5.86;69.83;101582.54;102196;1313;109019;-76
2021/12/15 07:02:31;;;;;;;0.90;0.90;;;;;;;5.82;70.17;101586.71;102083;1317;138541;-76
2021/12/15 07:05:00;;;;;;;0.90;0.90;;;;;;;5.79;70.31;101597.96;102299;1315;95740;-76
2021/12/15 07:07:28;;;;;;;0.80;0.80;;;;;;;5.79;70.17;101594.79;102239;1316;95339;-76
2021/12/15 07:09:55;;;;;;;0.90;0.90;;;;;;;5.75;70.35;101596.14;102129;1318;139997;-76
2021/12/15 07:12:28;;;;;;;0.80;0.80;;;;;;;5.80;70.49;101596.91;102299;1317;110303;-77
2021/12/15 07:14:55;;;;;;;0.80;0.80;;;;;;;5.85;70.45;101601.56;102106;1316;140204;-76
2021/12/15 07:17:25;;;;;;;0.70;0.70;;;;;;;5.86;70.16;101603.68;102196;1316;95707;-76
2021/12/15 07:22:33;;;;;;;0.80;0.80;;;;;;;5.85;70.20;101602.45;102111;1316;140588;-75
2021/12/15 07:25:04;;;;;;;0.80;0.80;;;;;;;5.82;70.28;101599.06;102237;1318;95752;-76
2021/12/15 07:27:32;;;;;;;1.00;1.00;;;;;;;5.90;70.65;101596.86;102096;1316;139525;-76
2021/12/15 07:30:01;;;;;;;0.80;0.80;;;;;;;5.96;70.30;101600.65;102098;1318;108470;-77
2021/12/15 07:32:28;;;;;;;0.80;0.80;;;;;;;5.97;70.15;101599.08;102310;1318;140982;-77
2021/12/15 07:34:56;;;;;;;0.80;0.80;;;;;;;6.01;70.46;101601.27;102173;1318;95304;-76
2021/12/15 07:37:24;;;;;;;0.80;0.80;;;;;;;6.06;70.07;101600.44;102251;1316;95126;-77
2021/12/15 07:39:58;;;;;;;0.80;0.80;;;;;;;5.99;70.37;101597.72;102048;1316;141043;-77
2021/12/15 07:42:35;;;;;;;0.80;0.80;;;;;;;5.90;69.93;101593.69;102248;1318;109731;-77
2021/12/15 07:45:07;;;;;;;0.80;0.80;;;;;;;5.78;70.54;101593.37;102140;1317;139908;-77
2021/12/15 07:47:35;;;;;;;0.80;0.80;;;;;;;5.65;70.83;101592.67;102109;1318;95267;-77
2021/12/15 07:50:04;;;;;;;0.70;0.70;;;;;;;5.68;71.08;101588.66;102141;1318;107819;-77
2021/12/15 07:52:32;;;;;;;0.80;0.80;;;;;;;5.71;71.19;101585.52;102088;1317;140029;-77
2021/12/15 07:55:00;;;;;;;0.70;0.70;;;;;;;5.84;71.32;101589.55;102189;1317;96363;-77
2021/12/15 07:57:29;;;;;;;0.80;0.80;;;;;;;5.96;70.96;101593.77;102006;1317;139539;-77
2021/12/15 07:59:57;;;;;;;0.90;0.90;;;;;;;6.02;70.69;101598.47;102226;1317;109412;-77
2021/12/15 08:02:25;;;;;;;0.80;0.80;;;;;;;6.03;70.75;101603.05;102036;1317;140473;-77
2021/12/15 08:04:54;;;;;;;0.80;0.80;;;;;;;6.05;70.66;101608.35;102148;1318;95669;-77
2021/12/15 08:07:21;;;;;;;0.80;0.80;;;;;;;6.12;70.56;101617.79;102277;1317;95698;-76
2021/12/15 08:09:50;;;;;;;0.70;0.70;;;;;;;6.09;70.45;101620.75;102134;1318;140222;-77
2021/12/15 08:12:18;;;;;;;0.80;0.80;;;;;;;6.15;70.27;101625.41;102107;1318;108861;-77
2021/12/15 08:14:45;;;;;;;0.80;0.80;;;;;;;6.14;70.46;101628.92;102126;1317;140082;-76
2021/12/15 08:17:14;;;;;;;0.70;0.70;;;;;;;6.13;70.33;101627.49;102167;1318;95258;-77
2021/12/15 08:19:42;;;;;;;0.70;0.70;;;;;;;6.12;70.17;101624.30;102186;1318;110394;-77
2021/12/15 08:22:10;;;;;;;0.80;0.80;;;;;;;6.06;70.15;101632.35;101964;1317;141280;-76
2021/12/15 08:24:38;;;;;;;0.80;0.80;;;;;;;6.01;70.49;101634.77;102191;1317;95289;-77
2021/12/15 08:27:06;;;;;;;0.80;0.80;;;;;;;5.90;70.39;101636.17;102153;1317;140098;-76
2021/12/15 08:29:34;;;;;;;0.80;0.80;;;;;;;5.87;70.86;101637.89;102148;1316;109661;-77
2021/12/15 08:32:03;;;;;;;0.80;0.80;;;;;;;5.95;70.79;101640.30;102118;1316;110292;-77
2021/12/15 08:34:31;;;;;;;0.70;0.70;;;;;;;5.91;70.97;101643.77;102023;1318;139404;-77
2021/12/15 08:36:58;;;;;;;0.80;0.80;;;;;;;5.78;70.96;101643.77;102162;1315;95191;-76
2021/12/15 08:39:26;;;;;;;0.80;0.80;;;;;;;5.67;71.36;101648.21;101988;1317;139758;-75
2021/12/15 08:41:54;;;;;;;0.80;0.80;;;;;;;5.76;71.56;101653.79;102141;1317;109692;-77
2021/12/15 08:44:23;;;;;;;0.70;0.70;;;;;;;5.85;71.32;101653.04;102060;1318;138092;-77
2021/12/15 08:46:50;;;;;;;0.80;0.80;;;;;;;5.83;71.20;101656.17;102165;1316;95199;-77
2021/12/15 08:49:21;;;;;;;0.80;0.80;;;;;;;5.74;71.24;101652.35;102054;1319;106445;-77
2021/12/15 08:51:50;;;;;;;0.80;0.80;;;;;;;5.68;71.83;101656.32;102315;1316;139721;-77
2021/12/15 08:54:20;;;;;;;0.80;0.80;;;;;;;5.81;71.93;101660.38;102258;1317;95363;-77
2021/12/15 08:56:50;;;;;;;0.80;0.80;;;;;;;5.98;71.82;101659.20;102077;1316;142466;-78
2021/12/15 08:59:18;;;;;;;0.80;0.80;;;;;;;5.93;71.23;101652.79;102229;1316;109764;-77
2021/12/15 09:01:46;;;;;;;0.80;0.80;;;;;;;5.83;71.61;101647.02;102168;1316;110321;-77
2021/12/15 09:04:15;;;;;;;0.80;0.80;;;;;;;5.76;71.37;101640.22;102079;1317;139951;-77
2021/12/15 09:06:44;;;;;;;0.80;0.80;;;;;;;5.70;71.56;101636.60;102188;1317;96485;-76
2021/12/15 09:09:14;;;;;;;0.80;0.80;;;;;;;5.60;71.81;101634.55;102081;1318;139585;-77
2021/12/15 09:11:43;;;;;;;0.80;0.80;;;;;;;5.50;72.45;101635.45;102149;1319;109599;-77
2021/12/15 09:14:11;;;;;;;0.80;0.80;;;;;;;5.60;72.61;101632.95;102225;1317;95665;-77
2021/12/15 09:16:42;;;;;;;0.80;0.80;;;;;;;5.62;72.05;101624.88;102165;1322;140129;-77
2021/12/15 09:19:10;;;;;;;0.70;0.70;;;;;;;5.67;72.37;101619.83;102164;1318;109914;-77
2021/12/15 09:21:38;;;;;;;0.80;0.80;;;;;;;5.73;71.96;101613.76;102106;1316;138799;-77
2021/12/15 09:24:07;;;;;;;0.80;0.80;;;;;;;5.69;72.27;101609.11;102314;1316;95285;-77
2021/12/15 09:26:35;;;;;;;0.80;0.80;;;;;;;5.65;72.37;101605.70;102046;1318;140621;-77
2021/12/15 09:29:04;;;;;;;0.70;0.70;;;;;;;5.67;72.48;101606.80;102218;1317;109451;-76
2021/12/15 09:31:33;;;;;;;0.80;0.80;;;;;;;5.75;72.77;101603.90;102320;1320;110838;-78
2021/12/15 09:34:01;;;;;;;0.90;0.90;;;;;;;5.72;72.49;101606.16;102124;1316;140079;-76
2021/12/15 09:36:29;;;;;;;0.80;0.80;;;;;;;5.72;72.46;101605.64;102183;1318;95045;-77
2021/12/15 09:39:06;;;;;;;0.70;0.70;;;;;;;5.74;72.66;101611.64;102031;1317;140034;-77
2021/12/15 09:41:34;;;;;;;0.70;0.70;;;;;;;5.85;72.99;101618.30;102145;1318;110279;-76
2021/12/15 09:44:08;;;;;;;0.80;0.80;;;;;;;5.97;73.03;101614.77;102158;1317;95788;-76
2021/12/15 09:47:02;;;;;;;0.70;0.70;;;;;;;6.11;72.34;101615.48;102093;1320;139805;-77
2021/12/15 10:03:43;;;;;;;0.70;0.70;;;;;;;6.48;71.41;101597.00;102047;1318;140383;-76
2021/12/15 10:19:46;;;;;;;0.70;0.70;;;;;;;6.68;70.62;101577.25;102225;1317;95275;-75
2021/12/15 10:23:01;;;;;;;0.70;0.70;;;;;;;6.68;71.09;101569.84;102157;1318;139988;-75
2021/12/15 10:25:33;;;;;;;0.60;0.60;;;;;;;6.66;71.31;101574.41;102147;1318;108718;-75
2021/12/15 10:28:05;;;;;;;0.70;0.70;;;;;;;6.64;71.77;101573.88;102096;1320;138493;-76
2021/12/15 10:30:44;;;;;;;0.60;0.60;;;;;;;6.69;71.58;101574.08;102188;1318;95343;-75
2021/12/15 10:33:18;;;;;;;0.60;0.60;;;;;;;6.69;71.73;101571.60;102091;1316;141882;-76
2021/12/15 10:35:47;;;;;;;0.60;0.60;;;;;;;6.68;71.65;101570.55;102191;1318;111412;-76
2021/12/15 10:38:44;;;;;;;0.70;0.70;;;;;;;6.58;72.14;101570.99;102280;1318;95719;-76
2021/12/15 10:41:13;;;;;;;0.80;0.80;;;;;;;6.57;72.46;101563.57;102208;1319;139768;-76
2021/12/15 10:44:13;;;;;;;0.70;0.70;;;;;;;6.59;72.55;101566.77;102227;1318;110355;-77
2021/12/15 10:46:58;;;;;;;0.60;0.60;;;;;;;6.57;72.51;101571.15;102189;1316;140111;-76
2021/12/15 10:49:31;;;;;;;0.80;0.80;;;;;;;6.52;73.02;101575.52;102194;1318;96242;-76
2021/12/15 10:52:01;;;;;;;0.70;0.70;;;;;;;6.64;72.76;101576.52;102214;1316;140493;-76
2021/12/15 10:54:33;;;;;;;0.60;0.60;;;;;;;6.76;72.72;101571.49;102161;1316;109813;-76
2021/12/15 10:57:06;;;;;;;0.60;0.60;;;;;;;6.80;72.71;101572.23;102455;1319;140982;-76
2021/12/15 10:59:39;;;;;;;0.70;0.70;;;;;;;6.77;72.34;101563.73;102286;1318;95284;-76
2021/12/15 11:02:32;;;;;;;0.70;0.70;;;;;;;6.74;72.78;101562.65;102243;1324;95185;-76
2021/12/15 11:05:05;;;;;;;0.70;0.70;;;;;;;6.83;72.83;101563.26;102205;1316;140291;-76
2021/12/15 11:07:40;;;;;;;0.70;0.70;;;;;;;6.86;72.69;101561.34;102173;1320;110283;-76
2021/12/15 11:10:31;;;;;;;0.70;0.70;;;;;;;6.99;72.83;101560.20;102179;1319;140207;-76
2021/12/15 11:13:11;;;;;;;0.60;0.60;;;;;;;7.05;72.47;101551.95;102206;1319;95690;-76
2021/12/15 11:15:45;;;;;;;0.60;0.60;;;;;;;7.14;72.50;101544.59;102117;1316;139818;-76
2021/12/15 11:18:16;;;;;;;0.60;0.60;;;;;;;7.19;72.39;101547.79;102092;1318;109705;-75
2021/12/15 11:20:54;;;;;;;0.70;0.70;;;;;;;7.22;72.21;101546.40;102268;1318;96099;-75
2021/12/15 11:23:23;;;;;;;0.60;0.60;;;;;;;7.24;72.41;101543.40;102189;1317;140344;-76
2021/12/15 11:25:56;;;;;;;0.60;0.60;;;;;;;7.36;72.00;101542.78;102233;1318;109375;-76
2021/12/15 11:28:34;;;;;;;0.60;0.60;;;;;;;7.40;72.34;101542.44;101979;1318;140406;-76
2021/12/15 11:31:10;;;;;;;0.50;0.50;;;;;;;7.45;71.74;101540.52;102097;1319;95318;-76
2021/12/15 11:33:44;;;;;;;0.60;0.60;;;;;;;7.46;71.68;101539.11;102065;1316;139141;-77
2021/12/15 11:36:17;;;;;;;0.50;0.50;;;;;;;7.47;72.19;101537.17;102211;1321;110251;-76
2021/12/15 11:38:47;;;;;;;0.60;0.60;;;;;;;7.51;71.66;101541.25;102174;1317;110266;-76
2021/12/15 11:41:17;;;;;;;0.60;0.60;;;;;;;7.47;72.08;101544.05;102212;1316;140061;-77
2021/12/15 11:43:57;;;;;;;0.50;0.50;;;;;;;7.54;71.81;101539.85;102240;1316;95287;-73
2021/12/15 11:46:30;;;;;;;0.60;0.60;;;;;;;7.62;71.95;101539.88;102064;1317;140069;-76
2021/12/15 11:49:04;;;;;;;0.60;0.60;;;;;;;7.60;71.76;101534.94;102079;1318;110294;-77
2021/12/15 11:51:41;;;;;;;0.60;0.60;;;;;;;7.53;71.55;101538.07;102055;1318;141501;-76
2021/12/15 11:54:20;;;;;;;0.60;0.60;;;;;;;7.49;71.97;101538.59;102136;1319;95834;-76
2021/12/15 11:56:51;;;;;;;0.60;0.60;;;;;;;7.50;71.90;101542.48;102193;1316;110396;-76
2021/12/15 11:59:32;;;;;;;0.70;0.70;;;;;;;7.61;72.07;101536.89;102192;1318;138818;-76
2021/12/15 12:02:03;;;;;;;0.60;0.60;;;;;;;7.64;71.97;101534.42;102243;1316;95253;-77
2021/12/15 12:04:37;;;;;;;0.60;0.60;;;;;;;7.69;72.14;101537.09;102095;1317;140538;-77
2021/12/15 12:07:30;;;;;;;0.60;0.60;;;;;;;7.73;71.53;101531.98;102131;1316;109393;-77
2021/12/15 12:10:31;;;;;;;0.60;0.60;;;;;;;7.74;71.75;101530.03;102215;1317;140040;-76
2021/12/15 12:13:11;;;;;;;0.60;0.60;;;;;;;7.85;71.81;101532.73;102236;1317;95276;-76
2021/12/15 12:15:41;;;;;;;0.60;0.60;;;;;;;7.83;71.18;101529.00;102148;1318;140123;-76
2021/12/15 12:18:23;;;;;;;0.60;0.60;;;;;;;7.69;71.64;101525.06;102262;1318;109706;-76
2021/12/15 12:20:54;;;;;;;0.60;0.60;;;;;;;7.69;71.65;101518.17;102291;1318;110173;-76
2021/12/15 12:23:24;;;;;;;0.60;0.60;;;;;;;7.74;71.67;101524.55;104020;1318;139909;-77
2021/12/15 12:25:56;;;;;;;0.60;0.60;;;;;;;7.76;71.54;101521.73;102337;1317;95408;-76
2021/12/15 12:28:27;;;;;;;0.60;0.60;;;;;;;7.76;71.88;101522.45;102239;1317;140088;-76
2021/12/15 12:30:58;;;;;;;0.60;0.60;;;;;;;7.81;71.84;101521.75;102308;1317;109708;-76
2021/12/15 12:33:27;;;;;;;0.50;0.50;;;;;;;7.85;71.85;101525.13;102163;1316;139682;-77
2021/12/15 12:36:03;;;;;;;0.60;0.60;;;;;;;7.99;71.87;101536.13;102351;1316;95663;-76
2021/12/15 12:38:33;;;;;;;0.60;0.60;;;;;;;8.07;71.10;101543.05;102289;1320;109677;-77
2021/12/15 12:41:06;;;;;;;0.50;0.50;;;;;;;7.95;71.09;101540.89;102146;1316;138569;-76
2021/12/15 12:43:40;;;;;;;0.50;0.50;;;;;;;7.88;71.27;101544.05;102333;1316;95189;-76
2021/12/15 12:46:15;;;;;;;0.50;0.50;;;;;;;7.81;71.43;101547.39;102060;1323;140461;-77
2021/12/15 13:00:35;;;;;;;0.60;0.60;;;;;;;7.61;72.04;101546.42;102206;1319;109430;-77
2021/12/15 13:03:13;;;;;;;0.50;0.50;;;;;;;7.65;72.25;101550.86;101771;1320;139989;-77
2021/12/15 13:05:48;;;;;;;0.60;0.60;;;;;;;7.64;72.17;101544.32;101986;1318;95156;-78
2021/12/15 13:08:36;;;;;;;0.60;0.60;;;;;;;7.67;72.56;101549.81;101837;1316;95700;-76